sensor_id;sensor_type;location;lat;lon;timestamp;P1;durP1;ratioP1;P2;durP2;ratioP2
44646;SDS011;56315;-33.902;151.160;2023-04-03T00:01:18;7.07;;;1.33;;
44646;SDS011;56315;-33.902;151.160;2023-04-03T00:03:46;3.85;;;1.63;;
44646;SDS011;56315;-33.902;151.160;2023-04-03T00:06:13;5.13;;;1.63;;
44646;SDS011;56315;-33.902;151.160;2023-04-03T00:08:41;7.57;;;1.40;;
44646;SDS011;56315;-33.902;151.160;2023-04-03T00:11:09;6.05;;;1.83;;
44646;SDS011;56315;-33.902;151.160;2023-04-03T00:13:36;5.15;;;1.60;;
44646;SDS011;56315;-33.902;151.160;2023-04-03T00:16:04;5.43;;;1.30;;
44646;SDS011;56315;-33.902;151.160;2023-04-03T00:18:33;4.68;;;1.95;;
44646;SDS011;56315;-33.902;151.160;2023-04-03T00:21:00;3.17;;;1.50;;
44646;SDS011;56315;-33.902;151.160;2023-04-03T00:23:28;7.13;;;1.65;;
44646;SDS011;56315;-33.902;151.160;2023-04-03T00:25:56;4.38;;;1.35;;
44646;SDS011;56315;-33.902;151.160;2023-04-03T00:28:23;4.10;;;1.30;;
44646;SDS011;56315;-33.902;151.160;2023-04-03T00:30:51;6.45;;;1.88;;
44646;SDS011;56315;-33.902;151.160;2023-04-03T00:33:18;5.40;;;1.92;;
44646;SDS011;56315;-33.902;151.160;2023-04-03T00:35:50;4.97;;;1.65;;
44646;SDS011;56315;-33.902;151.160;2023-04-03T00:38:17;5.80;;;1.40;;
44646;SDS011;56315;-33.902;151.160;2023-04-03T00:40:46;6.85;;;1.23;;
44646;SDS011;56315;-33.902;151.160;2023-04-03T00:43:15;5.88;;;1.50;;
44646;SDS011;56315;-33.902;151.160;2023-04-03T00:45:48;6.80;;;1.80;;
44646;SDS011;56315;-33.902;151.160;2023-04-03T00:48:18;7.55;;;2.00;;
44646;SDS011;56315;-33.902;151.160;2023-04-03T00:50:48;5.05;;;1.50;;
44646;SDS011;56315;-33.902;151.160;2023-04-03T00:53:18;5.63;;;1.67;;
44646;SDS011;56315;-33.902;151.160;2023-04-03T00:55:51;5.15;;;1.63;;
44646;SDS011;56315;-33.902;151.160;2023-04-03T00:58:22;5.55;;;1.55;;
44646;SDS011;56315;-33.902;151.160;2023-04-03T01:01:00;4.28;;;1.50;;
44646;SDS011;56315;-33.902;151.160;2023-04-03T01:03:32;5.55;;;1.45;;
44646;SDS011;56315;-33.902;151.160;2023-04-03T01:06:00;5.13;;;1.75;;
44646;SDS011;56315;-33.902;151.160;2023-04-03T01:08:27;4.15;;;1.33;;
44646;SDS011;56315;-33.902;151.160;2023-04-03T01:10:55;4.32;;;1.60;;
44646;SDS011;56315;-33.902;151.160;2023-04-03T01:13:24;3.80;;;1.20;;
44646;SDS011;56315;-33.902;151.160;2023-04-03T01:15:54;3.65;;;1.20;;
44646;SDS011;56315;-33.902;151.160;2023-04-03T01:18:22;2.70;;;0.98;;
44646;SDS011;56315;-33.902;151.160;2023-04-03T01:21:01;3.30;;;1.02;;
44646;SDS011;56315;-33.902;151.160;2023-04-03T01:23:58;4.97;;;1.58;;
44646;SDS011;56315;-33.902;151.160;2023-04-03T01:26:27;4.15;;;1.88;;
44646;SDS011;56315;-33.902;151.160;2023-04-03T01:28:55;4.93;;;1.50;;
44646;SDS011;56315;-33.902;151.160;2023-04-03T01:31:26;4.70;;;1.33;;
44646;SDS011;56315;-33.902;151.160;2023-04-03T01:33:56;4.13;;;1.33;;
44646;SDS011;56315;-33.902;151.160;2023-04-03T01:36:25;3.78;;;1.40;;
44646;SDS011;56315;-33.902;151.160;2023-04-03T01:38:54;4.55;;;1.42;;
44646;SDS011;56315;-33.902;151.160;2023-04-03T01:41:23;4.18;;;1.10;;
44646;SDS011;56315;-33.902;151.160;2023-04-03T01:43:51;4.00;;;1.10;;
44646;SDS011;56315;-33.902;151.160;2023-04-03T01:46:19;4.70;;;1.60;;
44646;SDS011;56315;-33.902;151.160;2023-04-03T01:48:46;5.43;;;1.45;;
44646;SDS011;56315;-33.902;151.160;2023-04-03T01:51:14;6.63;;;1.85;;
44646;SDS011;56315;-33.902;151.160;2023-04-03T01:53:41;8.40;;;1.60;;
44646;SDS011;56315;-33.902;151.160;2023-04-03T01:56:09;7.05;;;1.25;;
44646;SDS011;56315;-33.902;151.160;2023-04-03T01:58:37;8.45;;;1.30;;
44646;SDS011;56315;-33.902;151.160;2023-04-03T02:01:04;6.75;;;1.55;;
44646;SDS011;56315;-33.902;151.160;2023-04-03T02:03:32;5.75;;;1.50;;
44646;SDS011;56315;-33.902;151.160;2023-04-03T02:06:00;5.15;;;1.58;;
44646;SDS011;56315;-33.902;151.160;2023-04-03T02:08:27;8.05;;;1.90;;
44646;SDS011;56315;-33.902;151.160;2023-04-03T02:10:55;5.55;;;1.15;;
44646;SDS011;56315;-33.902;151.160;2023-04-03T02:13:22;5.00;;;1.60;;
44646;SDS011;56315;-33.902;151.160;2023-04-03T02:15:49;5.95;;;1.80;;
44646;SDS011;56315;-33.902;151.160;2023-04-03T02:18:17;4.07;;;1.25;;
44646;SDS011;56315;-33.902;151.160;2023-04-03T02:20:46;4.95;;;1.65;;
44646;SDS011;56315;-33.902;151.160;2023-04-03T02:23:13;5.32;;;1.15;;
44646;SDS011;56315;-33.902;151.160;2023-04-03T02:25:40;4.82;;;1.42;;
44646;SDS011;56315;-33.902;151.160;2023-04-03T02:28:08;5.88;;;1.30;;
44646;SDS011;56315;-33.902;151.160;2023-04-03T02:30:35;5.18;;;1.20;;
44646;SDS011;56315;-33.902;151.160;2023-04-03T02:33:02;5.00;;;1.50;;
44646;SDS011;56315;-33.902;151.160;2023-04-03T02:35:29;4.38;;;1.40;;
44646;SDS011;56315;-33.902;151.160;2023-04-03T02:37:56;5.70;;;1.40;;
44646;SDS011;56315;-33.902;151.160;2023-04-03T02:40:24;4.85;;;1.30;;
44646;SDS011;56315;-33.902;151.160;2023-04-03T02:42:51;6.65;;;2.08;;
44646;SDS011;56315;-33.902;151.160;2023-04-03T02:45:18;5.70;;;1.60;;
44646;SDS011;56315;-33.902;151.160;2023-04-03T02:47:45;6.65;;;1.50;;
44646;SDS011;56315;-33.902;151.160;2023-04-03T02:50:13;5.10;;;1.67;;
44646;SDS011;56315;-33.902;151.160;2023-04-03T02:52:40;5.20;;;1.30;;
44646;SDS011;56315;-33.902;151.160;2023-04-03T02:55:07;5.63;;;1.50;;
44646;SDS011;56315;-33.902;151.160;2023-04-03T02:57:36;5.57;;;1.20;;
44646;SDS011;56315;-33.902;151.160;2023-04-03T03:00:03;5.85;;;1.40;;
44646;SDS011;56315;-33.902;151.160;2023-04-03T03:02:30;3.92;;;1.05;;
44646;SDS011;56315;-33.902;151.160;2023-04-03T03:04:58;5.93;;;1.02;;
44646;SDS011;56315;-33.902;151.160;2023-04-03T03:07:25;5.30;;;1.30;;
44646;SDS011;56315;-33.902;151.160;2023-04-03T03:09:52;6.60;;;1.58;;
44646;SDS011;56315;-33.902;151.160;2023-04-03T03:12:20;5.45;;;1.38;;
44646;SDS011;56315;-33.902;151.160;2023-04-03T03:14:48;7.75;;;1.55;;
44646;SDS011;56315;-33.902;151.160;2023-04-03T03:17:16;4.35;;;1.23;;
44646;SDS011;56315;-33.902;151.160;2023-04-03T03:19:43;7.97;;;1.13;;
44646;SDS011;56315;-33.902;151.160;2023-04-03T03:22:11;3.60;;;1.00;;
44646;SDS011;56315;-33.902;151.160;2023-04-03T03:24:38;7.45;;;1.38;;
44646;SDS011;56315;-33.902;151.160;2023-04-03T03:27:06;5.78;;;0.95;;
44646;SDS011;56315;-33.902;151.160;2023-04-03T03:29:33;5.05;;;1.42;;
44646;SDS011;56315;-33.902;151.160;2023-04-03T03:32:00;5.85;;;1.10;;
44646;SDS011;56315;-33.902;151.160;2023-04-03T03:34:28;4.20;;;1.30;;
44646;SDS011;56315;-33.902;151.160;2023-04-03T03:36:55;8.00;;;1.10;;
44646;SDS011;56315;-33.902;151.160;2023-04-03T03:39:22;9.75;;;2.05;;
44646;SDS011;56315;-33.902;151.160;2023-04-03T03:41:49;4.70;;;1.52;;
44646;SDS011;56315;-33.902;151.160;2023-04-03T03:44:19;6.70;;;1.52;;
44646;SDS011;56315;-33.902;151.160;2023-04-03T03:46:46;5.00;;;1.33;;
44646;SDS011;56315;-33.902;151.160;2023-04-03T03:49:13;6.38;;;1.58;;
44646;SDS011;56315;-33.902;151.160;2023-04-03T03:51:41;5.70;;;1.23;;
44646;SDS011;56315;-33.902;151.160;2023-04-03T03:54:09;6.60;;;1.60;;
44646;SDS011;56315;-33.902;151.160;2023-04-03T03:56:36;6.32;;;1.33;;
44646;SDS011;56315;-33.902;151.160;2023-04-03T03:59:04;8.30;;;2.10;;
44646;SDS011;56315;-33.902;151.160;2023-04-03T04:01:31;6.72;;;1.63;;
44646;SDS011;56315;-33.902;151.160;2023-04-03T04:03:59;7.28;;;1.58;;
44646;SDS011;56315;-33.902;151.160;2023-04-03T04:06:26;7.60;;;1.65;;
44646;SDS011;56315;-33.902;151.160;2023-04-03T04:08:54;4.97;;;1.13;;
44646;SDS011;56315;-33.902;151.160;2023-04-03T04:11:21;8.15;;;1.40;;
44646;SDS011;56315;-33.902;151.160;2023-04-03T04:13:48;8.77;;;1.63;;
44646;SDS011;56315;-33.902;151.160;2023-04-03T04:16:15;8.85;;;2.17;;
44646;SDS011;56315;-33.902;151.160;2023-04-03T04:18:42;5.75;;;1.63;;
44646;SDS011;56315;-33.902;151.160;2023-04-03T04:21:10;9.95;;;1.95;;
44646;SDS011;56315;-33.902;151.160;2023-04-03T04:23:37;7.32;;;1.83;;
44646;SDS011;56315;-33.902;151.160;2023-04-03T04:26:04;9.35;;;1.80;;
44646;SDS011;56315;-33.902;151.160;2023-04-03T04:28:31;7.95;;;2.13;;
44646;SDS011;56315;-33.902;151.160;2023-04-03T04:30:59;8.52;;;1.55;;
44646;SDS011;56315;-33.902;151.160;2023-04-03T04:33:26;6.85;;;1.27;;
44646;SDS011;56315;-33.902;151.160;2023-04-03T04:35:53;10.38;;;1.92;;
44646;SDS011;56315;-33.902;151.160;2023-04-03T04:38:20;7.47;;;1.42;;
44646;SDS011;56315;-33.902;151.160;2023-04-03T04:40:48;6.32;;;1.60;;
44646;SDS011;56315;-33.902;151.160;2023-04-03T04:43:15;7.88;;;1.27;;
44646;SDS011;56315;-33.902;151.160;2023-04-03T04:45:43;7.60;;;1.63;;
44646;SDS011;56315;-33.902;151.160;2023-04-03T04:48:10;9.10;;;1.83;;
44646;SDS011;56315;-33.902;151.160;2023-04-03T04:50:38;11.02;;;1.77;;
44646;SDS011;56315;-33.902;151.160;2023-04-03T04:53:05;7.75;;;1.58;;
44646;SDS011;56315;-33.902;151.160;2023-04-03T04:55:32;5.82;;;1.30;;
44646;SDS011;56315;-33.902;151.160;2023-04-03T04:57:59;5.65;;;1.77;;
44646;SDS011;56315;-33.902;151.160;2023-04-03T05:00:27;5.50;;;1.42;;
44646;SDS011;56315;-33.902;151.160;2023-04-03T05:02:54;6.05;;;1.35;;
44646;SDS011;56315;-33.902;151.160;2023-04-03T05:05:21;4.45;;;1.27;;
44646;SDS011;56315;-33.902;151.160;2023-04-03T05:07:49;5.85;;;1.48;;
44646;SDS011;56315;-33.902;151.160;2023-04-03T05:10:16;6.20;;;1.23;;
44646;SDS011;56315;-33.902;151.160;2023-04-03T05:12:43;6.22;;;1.42;;
44646;SDS011;56315;-33.902;151.160;2023-04-03T05:15:10;10.63;;;1.83;;
44646;SDS011;56315;-33.902;151.160;2023-04-03T05:17:38;7.72;;;1.88;;
44646;SDS011;56315;-33.902;151.160;2023-04-03T05:20:05;10.70;;;1.42;;
44646;SDS011;56315;-33.902;151.160;2023-04-03T05:22:34;4.93;;;1.20;;
44646;SDS011;56315;-33.902;151.160;2023-04-03T05:25:01;5.85;;;1.40;;
44646;SDS011;56315;-33.902;151.160;2023-04-03T05:27:28;5.85;;;1.20;;
44646;SDS011;56315;-33.902;151.160;2023-04-03T05:29:56;8.50;;;1.50;;
44646;SDS011;56315;-33.902;151.160;2023-04-03T05:32:23;6.88;;;1.27;;
44646;SDS011;56315;-33.902;151.160;2023-04-03T05:34:53;4.95;;;1.10;;
44646;SDS011;56315;-33.902;151.160;2023-04-03T05:37:20;6.47;;;1.55;;
44646;SDS011;56315;-33.902;151.160;2023-04-03T05:39:47;8.35;;;1.45;;
44646;SDS011;56315;-33.902;151.160;2023-04-03T05:42:15;4.55;;;1.17;;
44646;SDS011;56315;-33.902;151.160;2023-04-03T05:44:42;8.88;;;1.63;;
44646;SDS011;56315;-33.902;151.160;2023-04-03T05:47:11;9.65;;;1.70;;
44646;SDS011;56315;-33.902;151.160;2023-04-03T05:49:38;8.13;;;1.60;;
44646;SDS011;56315;-33.902;151.160;2023-04-03T05:52:10;8.23;;;1.80;;
44646;SDS011;56315;-33.902;151.160;2023-04-03T05:54:45;11.15;;;2.10;;
44646;SDS011;56315;-33.902;151.160;2023-04-03T05:57:14;6.93;;;1.40;;
44646;SDS011;56315;-33.902;151.160;2023-04-03T05:59:45;7.50;;;1.35;;
44646;SDS011;56315;-33.902;151.160;2023-04-03T06:02:14;5.30;;;1.40;;
44646;SDS011;56315;-33.902;151.160;2023-04-03T06:04:43;6.30;;;1.15;;
44646;SDS011;56315;-33.902;151.160;2023-04-03T06:07:11;5.30;;;1.40;;
44646;SDS011;56315;-33.902;151.160;2023-04-03T06:09:41;5.18;;;1.38;;
44646;SDS011;56315;-33.902;151.160;2023-04-03T06:12:08;6.85;;;1.63;;
44646;SDS011;56315;-33.902;151.160;2023-04-03T06:14:36;4.78;;;1.20;;
44646;SDS011;56315;-33.902;151.160;2023-04-03T06:17:04;6.70;;;1.88;;
44646;SDS011;56315;-33.902;151.160;2023-04-03T06:19:31;10.27;;;2.33;;
44646;SDS011;56315;-33.902;151.160;2023-04-03T06:21:59;6.97;;;1.60;;
44646;SDS011;56315;-33.902;151.160;2023-04-03T06:24:26;6.95;;;2.13;;
44646;SDS011;56315;-33.902;151.160;2023-04-03T06:26:54;9.57;;;2.20;;
44646;SDS011;56315;-33.902;151.160;2023-04-03T06:29:22;12.38;;;1.63;;
44646;SDS011;56315;-33.902;151.160;2023-04-03T06:31:50;7.03;;;1.90;;
44646;SDS011;56315;-33.902;151.160;2023-04-03T06:34:18;9.48;;;1.70;;
44646;SDS011;56315;-33.902;151.160;2023-04-03T06:36:45;7.13;;;1.58;;
44646;SDS011;56315;-33.902;151.160;2023-04-03T06:39:15;12.18;;;1.55;;
44646;SDS011;56315;-33.902;151.160;2023-04-03T06:41:48;6.50;;;1.33;;
44646;SDS011;56315;-33.902;151.160;2023-04-03T06:44:16;8.63;;;2.03;;
44646;SDS011;56315;-33.902;151.160;2023-04-03T06:46:44;7.43;;;1.95;;
44646;SDS011;56315;-33.902;151.160;2023-04-03T06:49:12;11.30;;;2.15;;
44646;SDS011;56315;-33.902;151.160;2023-04-03T06:51:40;7.60;;;1.70;;
44646;SDS011;56315;-33.902;151.160;2023-04-03T06:54:07;10.30;;;2.17;;
44646;SDS011;56315;-33.902;151.160;2023-04-03T06:56:35;9.60;;;1.83;;
44646;SDS011;56315;-33.902;151.160;2023-04-03T06:59:02;9.70;;;1.98;;
44646;SDS011;56315;-33.902;151.160;2023-04-03T07:01:30;10.73;;;2.72;;
44646;SDS011;56315;-33.902;151.160;2023-04-03T07:03:58;7.85;;;1.80;;
44646;SDS011;56315;-33.902;151.160;2023-04-03T07:06:25;15.68;;;2.65;;
44646;SDS011;56315;-33.902;151.160;2023-04-03T07:08:53;9.60;;;2.05;;
44646;SDS011;56315;-33.902;151.160;2023-04-03T07:11:20;10.23;;;1.90;;
44646;SDS011;56315;-33.902;151.160;2023-04-03T07:13:48;7.68;;;1.60;;
44646;SDS011;56315;-33.902;151.160;2023-04-03T07:16:16;8.73;;;1.60;;
44646;SDS011;56315;-33.902;151.160;2023-04-03T07:18:44;6.28;;;1.90;;
44646;SDS011;56315;-33.902;151.160;2023-04-03T07:21:12;6.95;;;1.75;;
44646;SDS011;56315;-33.902;151.160;2023-04-03T07:23:39;11.85;;;1.85;;
44646;SDS011;56315;-33.902;151.160;2023-04-03T07:26:07;6.63;;;1.67;;
44646;SDS011;56315;-33.902;151.160;2023-04-03T07:28:35;14.88;;;2.17;;
44646;SDS011;56315;-33.902;151.160;2023-04-03T07:31:03;7.57;;;1.90;;
44646;SDS011;56315;-33.902;151.160;2023-04-03T07:33:33;8.50;;;1.50;;
44646;SDS011;56315;-33.902;151.160;2023-04-03T07:36:02;6.88;;;1.50;;
44646;SDS011;56315;-33.902;151.160;2023-04-03T07:38:32;11.00;;;2.55;;
44646;SDS011;56315;-33.902;151.160;2023-04-03T07:41:01;12.90;;;2.10;;
44646;SDS011;56315;-33.902;151.160;2023-04-03T07:43:28;8.10;;;1.90;;
44646;SDS011;56315;-33.902;151.160;2023-04-03T07:45:56;12.55;;;2.65;;
44646;SDS011;56315;-33.902;151.160;2023-04-03T07:48:24;10.10;;;2.60;;
44646;SDS011;56315;-33.902;151.160;2023-04-03T07:50:52;8.88;;;2.03;;
44646;SDS011;56315;-33.902;151.160;2023-04-03T07:53:19;12.82;;;2.33;;
44646;SDS011;56315;-33.902;151.160;2023-04-03T07:55:47;7.25;;;2.00;;
44646;SDS011;56315;-33.902;151.160;2023-04-03T07:58:17;11.00;;;2.28;;
44646;SDS011;56315;-33.902;151.160;2023-04-03T08:00:45;11.63;;;2.72;;
44646;SDS011;56315;-33.902;151.160;2023-04-03T08:03:13;11.23;;;3.65;;
44646;SDS011;56315;-33.902;151.160;2023-04-03T08:05:44;11.45;;;4.95;;
44646;SDS011;56315;-33.902;151.160;2023-04-03T08:08:14;30.70;;;19.08;;
44646;SDS011;56315;-33.902;151.160;2023-04-03T08:10:52;18.27;;;11.77;;
44646;SDS011;56315;-33.902;151.160;2023-04-03T08:13:21;10.25;;;3.35;;
44646;SDS011;56315;-33.902;151.160;2023-04-03T08:15:48;10.43;;;2.08;;
44646;SDS011;56315;-33.902;151.160;2023-04-03T08:18:16;8.43;;;2.17;;
44646;SDS011;56315;-33.902;151.160;2023-04-03T08:20:47;9.93;;;1.98;;
44646;SDS011;56315;-33.902;151.160;2023-04-03T08:23:14;15.75;;;2.58;;
44646;SDS011;56315;-33.902;151.160;2023-04-03T08:25:42;13.95;;;3.65;;
44646;SDS011;56315;-33.902;151.160;2023-04-03T08:28:11;10.02;;;2.03;;
44646;SDS011;56315;-33.902;151.160;2023-04-03T08:30:39;12.13;;;2.92;;
44646;SDS011;56315;-33.902;151.160;2023-04-03T08:33:08;11.18;;;2.08;;
44646;SDS011;56315;-33.902;151.160;2023-04-03T08:35:39;9.65;;;2.53;;
44646;SDS011;56315;-33.902;151.160;2023-04-03T08:38:07;8.77;;;2.10;;
44646;SDS011;56315;-33.902;151.160;2023-04-03T08:40:35;11.48;;;1.95;;
44646;SDS011;56315;-33.902;151.160;2023-04-03T08:43:06;9.80;;;1.77;;
44646;SDS011;56315;-33.902;151.160;2023-04-03T08:45:55;12.57;;;2.75;;
44646;SDS011;56315;-33.902;151.160;2023-04-03T08:48:27;10.15;;;2.15;;
44646;SDS011;56315;-33.902;151.160;2023-04-03T08:51:00;14.23;;;2.65;;
44646;SDS011;56315;-33.902;151.160;2023-04-03T08:53:37;9.50;;;2.00;;
44646;SDS011;56315;-33.902;151.160;2023-04-03T08:56:10;10.60;;;2.17;;
44646;SDS011;56315;-33.902;151.160;2023-04-03T08:58:48;10.93;;;1.98;;
44646;SDS011;56315;-33.902;151.160;2023-04-03T09:01:40;9.40;;;1.90;;
44646;SDS011;56315;-33.902;151.160;2023-04-03T09:04:12;15.25;;;2.90;;
44646;SDS011;56315;-33.902;151.160;2023-04-03T09:06:45;7.57;;;1.92;;
44646;SDS011;56315;-33.902;151.160;2023-04-03T09:17:36;9.32;;;2.05;;
44646;SDS011;56315;-33.902;151.160;2023-04-03T09:23:47;10.70;;;1.90;;
44646;SDS011;56315;-33.902;151.160;2023-04-03T09:26:09;12.60;;;2.10;;
44646;SDS011;56315;-33.902;151.160;2023-04-03T09:29:02;8.20;;;1.90;;
44646;SDS011;56315;-33.902;151.160;2023-04-03T09:31:37;8.35;;;2.15;;
44646;SDS011;56315;-33.902;151.160;2023-04-03T09:34:08;7.75;;;1.80;;
44646;SDS011;56315;-33.902;151.160;2023-04-03T09:36:47;10.07;;;2.10;;
44646;SDS011;56315;-33.902;151.160;2023-04-03T09:39:17;8.18;;;1.80;;
44646;SDS011;56315;-33.902;151.160;2023-04-03T09:42:03;12.37;;;2.67;;
44646;SDS011;56315;-33.902;151.160;2023-04-03T09:44:33;10.48;;;1.92;;
44646;SDS011;56315;-33.902;151.160;2023-04-03T09:47:44;8.30;;;2.50;;
44646;SDS011;56315;-33.902;151.160;2023-04-03T09:50:36;10.02;;;2.08;;
44646;SDS011;56315;-33.902;151.160;2023-04-03T09:52:48;11.80;;;2.25;;
44646;SDS011;56315;-33.902;151.160;2023-04-03T09:55:28;8.70;;;1.90;;
44646;SDS011;56315;-33.902;151.160;2023-04-03T09:57:59;9.52;;;1.92;;
44646;SDS011;56315;-33.902;151.160;2023-04-03T10:00:38;11.93;;;2.73;;
44646;SDS011;56315;-33.902;151.160;2023-04-03T10:03:23;18.05;;;2.40;;
44646;SDS011;56315;-33.902;151.160;2023-04-03T10:05:58;11.05;;;2.38;;
44646;SDS011;56315;-33.902;151.160;2023-04-03T10:08:33;14.00;;;1.90;;
44646;SDS011;56315;-33.902;151.160;2023-04-03T10:11:08;12.15;;;2.20;;
44646;SDS011;56315;-33.902;151.160;2023-04-03T10:13:56;10.90;;;2.47;;
44646;SDS011;56315;-33.902;151.160;2023-04-03T10:16:38;9.80;;;2.10;;
44646;SDS011;56315;-33.902;151.160;2023-04-03T10:19:20;6.38;;;1.90;;
44646;SDS011;56315;-33.902;151.160;2023-04-03T10:22:18;7.75;;;1.85;;
44646;SDS011;56315;-33.902;151.160;2023-04-03T10:28:02;7.80;;;1.67;;
44646;SDS011;56315;-33.902;151.160;2023-04-03T10:36:43;8.55;;;1.38;;
44646;SDS011;56315;-33.902;151.160;2023-04-03T10:50:38;16.05;;;2.63;;
44646;SDS011;56315;-33.902;151.160;2023-04-03T10:58:50;10.55;;;1.60;;
44646;SDS011;56315;-33.902;151.160;2023-04-03T11:01:26;8.57;;;1.70;;
44646;SDS011;56315;-33.902;151.160;2023-04-03T11:04:00;6.97;;;1.45;;
44646;SDS011;56315;-33.902;151.160;2023-04-03T11:06:42;7.25;;;2.05;;
44646;SDS011;56315;-33.902;151.160;2023-04-03T11:09:21;7.22;;;1.52;;
44646;SDS011;56315;-33.902;151.160;2023-04-03T11:12:19;8.52;;;2.63;;
44646;SDS011;56315;-33.902;151.160;2023-04-03T11:14:53;12.00;;;2.50;;
44646;SDS011;56315;-33.902;151.160;2023-04-03T11:17:39;7.28;;;1.42;;
44646;SDS011;56315;-33.902;151.160;2023-04-03T11:20:28;8.13;;;1.63;;
44646;SDS011;56315;-33.902;151.160;2023-04-03T11:23:13;9.68;;;1.73;;
44646;SDS011;56315;-33.902;151.160;2023-04-03T11:25:46;9.07;;;2.13;;
44646;SDS011;56315;-33.902;151.160;2023-04-03T11:28:18;10.95;;;1.85;;
44646;SDS011;56315;-33.902;151.160;2023-04-03T11:36:28;9.73;;;1.42;;
44646;SDS011;56315;-33.902;151.160;2023-04-03T11:39:07;8.43;;;1.40;;
44646;SDS011;56315;-33.902;151.160;2023-04-03T11:45:16;7.85;;;1.55;;
44646;SDS011;56315;-33.902;151.160;2023-04-03T11:47:55;7.65;;;1.30;;
44646;SDS011;56315;-33.902;151.160;2023-04-03T11:50:41;7.65;;;1.50;;
44646;SDS011;56315;-33.902;151.160;2023-04-03T11:58:11;10.05;;;2.65;;
44646;SDS011;56315;-33.902;151.160;2023-04-03T12:13:38;8.52;;;2.13;;
44646;SDS011;56315;-33.902;151.160;2023-04-03T12:16:07;9.93;;;1.67;;
44646;SDS011;56315;-33.902;151.160;2023-04-03T12:31:55;13.35;;;1.83;;
44646;SDS011;56315;-33.902;151.160;2023-04-03T12:43:25;8.18;;;1.92;;
44646;SDS011;56315;-33.902;151.160;2023-04-03T12:48:53;9.95;;;2.45;;
44646;SDS011;56315;-33.902;151.160;2023-04-03T12:53:54;8.77;;;1.83;;
44646;SDS011;56315;-33.902;151.160;2023-04-03T12:56:30;7.82;;;2.20;;
44646;SDS011;56315;-33.902;151.160;2023-04-03T13:01:56;6.85;;;1.60;;
44646;SDS011;56315;-33.902;151.160;2023-04-03T13:04:26;7.97;;;1.70;;
44646;SDS011;56315;-33.902;151.160;2023-04-03T13:06:56;7.45;;;1.42;;
44646;SDS011;56315;-33.902;151.160;2023-04-03T13:09:25;11.43;;;1.60;;
44646;SDS011;56315;-33.902;151.160;2023-04-03T13:11:56;7.05;;;1.40;;
44646;SDS011;56315;-33.902;151.160;2023-04-03T13:14:27;6.75;;;1.88;;
44646;SDS011;56315;-33.902;151.160;2023-04-03T13:16:56;7.95;;;1.70;;
44646;SDS011;56315;-33.902;151.160;2023-04-03T13:19:26;5.30;;;1.45;;
44646;SDS011;56315;-33.902;151.160;2023-04-03T13:22:19;9.15;;;2.10;;
44646;SDS011;56315;-33.902;151.160;2023-04-03T13:25:09;8.65;;;2.05;;
44646;SDS011;56315;-33.902;151.160;2023-04-03T13:27:40;10.82;;;2.67;;
44646;SDS011;56315;-33.902;151.160;2023-04-03T13:30:26;6.50;;;2.03;;
44646;SDS011;56315;-33.902;151.160;2023-04-03T13:33:00;7.90;;;1.75;;
44646;SDS011;56315;-33.902;151.160;2023-04-03T13:40:48;7.38;;;1.70;;
44646;SDS011;56315;-33.902;151.160;2023-04-03T13:43:31;7.82;;;2.00;;
44646;SDS011;56315;-33.902;151.160;2023-04-03T13:46:22;8.98;;;2.08;;
44646;SDS011;56315;-33.902;151.160;2023-04-03T13:48:55;7.05;;;1.60;;
44646;SDS011;56315;-33.902;151.160;2023-04-03T13:51:24;9.50;;;2.58;;
44646;SDS011;56315;-33.902;151.160;2023-04-03T13:54:01;8.55;;;2.05;;
44646;SDS011;56315;-33.902;151.160;2023-04-03T13:56:39;4.10;;;1.50;;
44646;SDS011;56315;-33.902;151.160;2023-04-03T14:01:50;6.10;;;2.15;;
44646;SDS011;56315;-33.902;151.160;2023-04-03T14:04:54;7.43;;;1.77;;
44646;SDS011;56315;-33.902;151.160;2023-04-03T14:07:24;6.53;;;2.13;;
44646;SDS011;56315;-33.902;151.160;2023-04-03T14:09:52;5.90;;;1.60;;
44646;SDS011;56315;-33.902;151.160;2023-04-03T14:15:44;7.97;;;2.05;;
44646;SDS011;56315;-33.902;151.160;2023-04-03T14:17:56;9.55;;;3.17;;
44646;SDS011;56315;-33.902;151.160;2023-04-03T14:20:25;12.10;;;1.83;;
44646;SDS011;56315;-33.902;151.160;2023-04-03T14:22:53;10.25;;;2.25;;
44646;SDS011;56315;-33.902;151.160;2023-04-03T14:25:20;7.93;;;1.90;;
44646;SDS011;56315;-33.902;151.160;2023-04-03T14:27:50;10.02;;;1.90;;
44646;SDS011;56315;-33.902;151.160;2023-04-03T14:30:20;8.10;;;1.83;;
44646;SDS011;56315;-33.902;151.160;2023-04-03T14:32:50;9.80;;;2.20;;
44646;SDS011;56315;-33.902;151.160;2023-04-03T14:35:18;8.32;;;1.77;;
44646;SDS011;56315;-33.902;151.160;2023-04-03T14:37:46;9.82;;;2.42;;
44646;SDS011;56315;-33.902;151.160;2023-04-03T14:40:15;7.20;;;1.65;;
44646;SDS011;56315;-33.902;151.160;2023-04-03T14:42:48;7.32;;;1.88;;
44646;SDS011;56315;-33.902;151.160;2023-04-03T14:45:16;7.15;;;1.75;;
44646;SDS011;56315;-33.902;151.160;2023-04-03T14:47:53;13.85;;;3.15;;
44646;SDS011;56315;-33.902;151.160;2023-04-03T14:50:23;10.68;;;2.63;;
44646;SDS011;56315;-33.902;151.160;2023-04-03T14:52:53;12.40;;;2.85;;
44646;SDS011;56315;-33.902;151.160;2023-04-03T14:55:23;12.25;;;2.47;;
44646;SDS011;56315;-33.902;151.160;2023-04-03T14:57:51;14.82;;;3.47;;
44646;SDS011;56315;-33.902;151.160;2023-04-03T15:00:20;9.05;;;2.65;;
44646;SDS011;56315;-33.902;151.160;2023-04-03T15:02:48;12.88;;;2.72;;
44646;SDS011;56315;-33.902;151.160;2023-04-03T15:05:15;7.70;;;3.05;;
44646;SDS011;56315;-33.902;151.160;2023-04-03T15:07:44;11.88;;;2.75;;
44646;SDS011;56315;-33.902;151.160;2023-04-03T15:10:37;8.02;;;2.70;;
44646;SDS011;56315;-33.902;151.160;2023-04-03T15:13:04;10.20;;;2.95;;
44646;SDS011;56315;-33.902;151.160;2023-04-03T15:15:32;12.05;;;4.07;;
44646;SDS011;56315;-33.902;151.160;2023-04-03T15:18:00;12.00;;;4.03;;
44646;SDS011;56315;-33.902;151.160;2023-04-03T15:20:28;9.30;;;3.67;;
44646;SDS011;56315;-33.902;151.160;2023-04-03T15:22:56;10.95;;;3.30;;
44646;SDS011;56315;-33.902;151.160;2023-04-03T15:25:26;12.35;;;3.40;;
44646;SDS011;56315;-33.902;151.160;2023-04-03T15:27:54;11.50;;;3.65;;
44646;SDS011;56315;-33.902;151.160;2023-04-03T15:30:22;10.35;;;3.08;;
44646;SDS011;56315;-33.902;151.160;2023-04-03T15:32:49;10.48;;;3.65;;
44646;SDS011;56315;-33.902;151.160;2023-04-03T15:35:17;8.85;;;3.58;;
44646;SDS011;56315;-33.902;151.160;2023-04-03T15:37:44;13.32;;;3.42;;
44646;SDS011;56315;-33.902;151.160;2023-04-03T15:40:13;13.32;;;3.90;;
44646;SDS011;56315;-33.902;151.160;2023-04-03T15:42:41;13.35;;;3.50;;
44646;SDS011;56315;-33.902;151.160;2023-04-03T15:45:09;11.60;;;3.55;;
44646;SDS011;56315;-33.902;151.160;2023-04-03T15:47:36;10.18;;;3.38;;
44646;SDS011;56315;-33.902;151.160;2023-04-03T15:50:04;10.27;;;3.33;;
44646;SDS011;56315;-33.902;151.160;2023-04-03T15:52:33;12.60;;;3.92;;
44646;SDS011;56315;-33.902;151.160;2023-04-03T15:55:01;9.27;;;3.42;;
44646;SDS011;56315;-33.902;151.160;2023-04-03T15:57:28;8.52;;;3.97;;
44646;SDS011;56315;-33.902;151.160;2023-04-03T15:59:56;9.70;;;3.33;;
44646;SDS011;56315;-33.902;151.160;2023-04-03T16:02:23;8.32;;;3.17;;
44646;SDS011;56315;-33.902;151.160;2023-04-03T16:04:53;12.30;;;3.50;;
44646;SDS011;56315;-33.902;151.160;2023-04-03T16:07:21;10.45;;;3.63;;
44646;SDS011;56315;-33.902;151.160;2023-04-03T16:09:48;11.50;;;4.22;;
44646;SDS011;56315;-33.902;151.160;2023-04-03T16:12:16;9.73;;;3.38;;